Time;durP1;ratioP1;P1;durP2;ratioP2;P2;SDS_P1;SDS_P2;PMS_P1;PMS_P2;Temp;Humidity;BMP_temperature;BMP_pressure;BME280_temperature;BME280_humidity;BME280_pressure;Samples;Min_cycle;Max_cycle;Signal;HPM_P1;HPM_P2
2021/01/03 00:00:42;;;;;;;8.88;3.97;;;;;;;5.89;76.98;100955.78;4439070;32;20076;-73
2021/01/03 00:03:08;;;;;;;7.12;3.72;;;;;;;5.97;77.12;100962.97;4426776;32;20078;-73
2021/01/03 00:05:34;;;;;;;11.80;4.03;;;;;;;5.98;77.18;100961.75;4441823;32;20030;-74
2021/01/03 00:07:59;;;;;;;8.50;4.40;;;;;;;5.98;77.10;100963.72;4436028;32;20041;-74
2021/01/03 00:10:26;;;;;;;6.18;3.45;;;;;;;6.02;77.37;100956.94;4442128;32;20036;-74
2021/01/03 00:12:51;;;;;;;8.27;3.92;;;;;;;6.06;77.27;100962.53;4441138;32;20103;-73
2021/01/03 00:15:20;;;;;;;7.07;3.78;;;;;;;6.04;76.96;100953.75;4440277;32;20041;-74
2021/01/03 00:17:46;;;;;;;6.43;3.45;;;;;;;6.05;76.81;100952.56;4441359;32;20395;-73
2021/01/03 00:20:16;;;;;;;5.40;3.55;;;;;;;5.87;77.33;100958.16;4438051;32;20530;-74
2021/01/03 00:22:41;;;;;;;8.32;4.05;;;;;;;5.91;76.93;100961.78;4440275;32;20063;-74
2021/01/03 00:25:09;;;;;;;6.90;3.80;;;;;;;5.89;76.98;100961.38;4428892;32;20030;-74
2021/01/03 00:27:35;;;;;;;6.00;3.67;;;;;;;5.90;77.24;100962.94;4421368;32;20100;-74
2021/01/03 00:30:02;;;;;;;6.65;3.87;;;;;;;5.88;76.99;100957.00;4431242;32;20068;-74
2021/01/03 00:32:28;;;;;;;7.05;4.10;;;;;;;5.77;77.53;100960.97;4426192;32;20135;-75
2021/01/03 00:34:53;;;;;;;5.50;3.62;;;;;;;5.81;77.63;100956.16;4442385;26;20141;-77
2021/01/03 00:37:21;;;;;;;5.87;3.78;;;;;;;5.82;77.71;100953.00;4431920;32;20394;-77
2021/01/03 00:39:49;;;;;;;6.62;3.90;;;;;;;5.90;77.21;100957.38;4424877;32;20045;-77
2021/01/03 00:42:16;;;;;;;4.90;3.85;;;;;;;5.87;77.13;100963.75;4427138;32;20456;-76
2021/01/03 00:44:42;;;;;;;6.93;3.83;;;;;;;5.94;76.34;100952.59;4428485;32;20072;-74
2021/01/03 00:47:09;;;;;;;4.60;3.83;;;;;;;5.92;76.82;100951.38;4431459;32;20053;-76
2021/01/03 00:49:34;;;;;;;5.45;3.65;;;;;;;5.96;77.04;100961.34;4425496;32;20071;-74
2021/01/03 00:52:00;;;;;;;5.25;3.72;;;;;;;5.94;76.97;100965.75;4430324;32;20073;-75
2021/01/03 00:54:26;;;;;;;5.60;3.55;;;;;;;5.91;76.79;100953.38;4428492;32;20072;-75
2021/01/03 00:56:51;;;;;;;6.10;3.62;;;;;;;5.82;77.01;100955.00;4430344;32;20488;-77
2021/01/03 00:59:17;;;;;;;7.32;3.70;;;;;;;5.77;77.29;100958.19;4426957;32;20037;-74
2021/01/03 01:01:42;;;;;;;8.13;4.22;;;;;;;5.84;77.25;100956.22;4428887;32;20084;-75
2021/01/03 01:04:08;;;;;;;8.55;3.85;;;;;;;5.70;77.66;100960.94;4432109;32;20054;-73
2021/01/03 01:06:34;;;;;;;8.38;4.12;;;;;;;5.76;77.50;100962.16;4428426;32;20178;-75
2021/01/03 01:09:00;;;;;;;5.18;3.55;;;;;;;5.77;77.83;100961.75;4417377;32;20102;-75
2021/01/03 01:11:27;;;;;;;6.82;4.07;;;;;;;5.80;77.46;100958.16;4429854;32;20144;-77
2021/01/03 01:13:53;;;;;;;5.97;4.05;;;;;;;5.82;77.69;100955.00;4433496;32;20399;-76
2021/01/03 01:16:19;;;;;;;5.62;3.67;;;;;;;5.81;77.69;100962.59;4431016;32;20085;-74
2021/01/03 01:18:44;;;;;;;5.37;3.75;;;;;;;5.86;77.66;100956.59;4427431;32;20037;-74
2021/01/03 01:21:10;;;;;;;9.27;3.80;;;;;;;5.80;78.03;100952.56;4431774;32;20211;-76
2021/01/03 01:23:36;;;;;;;6.95;3.65;;;;;;;5.69;78.10;100953.78;4432745;32;20045;-75
2021/01/03 01:26:04;;;;;;;3.85;3.08;;;;;;;5.77;77.84;100958.19;4433188;32;20152;-76
2021/01/03 01:28:30;;;;;;;5.68;3.15;;;;;;;5.79;77.76;100955.75;4434057;32;20511;-74
2021/01/03 01:30:57;;;;;;;6.95;3.55;;;;;;;5.73;77.74;100954.56;4431876;32;20041;-74
2021/01/03 01:33:23;;;;;;;5.65;3.25;;;;;;;5.70;78.04;100952.56;4433665;32;20438;-78
2021/01/03 01:35:48;;;;;;;5.87;3.30;;;;;;;5.82;77.59;100950.22;4433604;32;20088;-78
2021/01/03 01:38:14;;;;;;;6.50;3.35;;;;;;;5.92;77.52;100954.97;4418428;32;20504;-76
2021/01/03 01:40:42;;;;;;;8.23;3.15;;;;;;;5.95;77.44;100948.59;4432453;32;20049;-78
2021/01/03 01:43:12;;;;;;;7.32;3.20;;;;;;;5.92;77.52;100956.97;4419311;32;20460;-77
2021/01/03 01:45:41;;;;;;;5.57;2.83;;;;;;;5.98;77.31;100949.78;4428491;32;20030;-73
2021/01/03 01:48:11;;;;;;;4.97;2.90;;;;;;;6.02;76.96;100956.94;4422937;32;20102;-76
2021/01/03 01:50:43;;;;;;;3.50;2.53;;;;;;;6.09;76.65;100956.13;4429524;32;20389;-75
2021/01/03 01:53:19;;;;;;;3.62;2.08;;;;;;;6.09;76.44;100947.75;4426661;32;20067;-78
2021/01/03 01:55:53;;;;;;;5.32;2.30;;;;;;;6.21;76.49;100960.50;4434168;32;20300;-75
2021/01/03 02:01:23;;;;;;;4.35;2.10;;;;;;;6.60;76.10;100966.75;3989051;32;15023806;-75
2021/01/03 02:06:36;;;;;;;7.20;2.10;;;;;;;6.40;76.10;100965.63;3988141;32;15025539;-74
2021/01/03 02:09:09;;;;;;;4.90;2.40;;;;;;;6.40;76.10;100965.63;4433708;32;20552;-76
2021/01/03 02:11:35;;;;;;;6.43;2.40;;;;;;;6.06;77.42;100977.31;4430445;32;20467;-75
2021/01/03 02:14:03;;;;;;;7.95;2.60;;;;;;;6.00;77.39;100975.31;4433442;32;20046;-75
2021/01/03 02:16:32;;;;;;;4.87;2.03;;;;;;;5.93;77.26;100967.72;4435882;32;20095;-75
2021/01/03 02:18:59;;;;;;;5.32;2.42;;;;;;;5.79;77.79;100964.12;4434911;32;20096;-75
2021/01/03 02:26:39;;;;;;;2.85;1.60;;;;;;;6.43;76.21;100971.22;3986187;32;15023191;-74
2021/01/03 02:29:10;;;;;;;3.80;1.87;;;;;;;6.43;76.21;100971.22;4439715;32;20104;-77
2021/01/03 02:31:41;;;;;;;3.20;1.70;;;;;;;6.05;76.67;100972.91;4440548;32;21374;-74
2021/01/03 02:34:10;;;;;;;3.37;1.80;;;;;;;6.08;77.26;100969.31;4433258;32;20044;-77
2021/01/03 02:36:42;;;;;;;3.67;1.90;;;;;;;6.04;77.92;100973.31;4425533;32;20057;-77
2021/01/03 02:41:42;;;;;;;6.82;1.60;;;;;;;6.26;78.70;100988.03;3988494;32;15024192;-75
2021/01/03 02:44:08;;;;;;;5.28;2.53;;;;;;;6.04;78.22;100984.47;4442758;32;20043;-75
2021/01/03 02:46:37;;;;;;;5.57;2.30;;;;;;;5.94;78.32;100991.69;4441712;32;20138;-74
2021/01/03 02:49:05;;;;;;;6.03;2.40;;;;;;;6.02;78.62;100987.69;4443330;32;20403;-74
2021/01/03 02:51:36;;;;;;;5.97;3.00;;;;;;;6.01;78.66;100990.88;4444110;32;20068;-74
2021/01/03 02:54:03;;;;;;;4.80;2.87;;;;;;;6.01;79.25;100988.06;4445965;32;20053;-75
2021/01/03 02:56:28;;;;;;;5.32;2.53;;;;;;;5.93;78.21;100990.09;4445338;32;20070;-75
2021/01/03 02:58:55;;;;;;;8.30;3.10;;;;;;;5.94;78.63;100980.53;4442583;32;20451;-73
2021/01/03 03:01:20;;;;;;;6.18;3.03;;;;;;;5.90;78.54;100990.09;4442119;32;20078;-73
2021/01/03 03:03:46;;;;;;;6.28;2.87;;;;;;;5.87;78.54;100988.09;4439027;32;20522;-74
2021/01/03 03:06:12;;;;;;;8.55;3.42;;;;;;;5.94;78.73;100977.72;4437018;32;20324;-73
2021/01/03 03:08:38;;;;;;;6.12;2.75;;;;;;;6.01;78.57;100974.91;4438821;32;20037;-74
2021/01/03 03:11:03;;;;;;;6.15;2.45;;;;;;;6.06;78.57;100977.31;4441596;32;20051;-74
2021/01/03 03:13:29;;;;;;;4.25;2.42;;;;;;;6.03;78.05;100975.31;4433126;32;20347;-75
2021/01/03 03:15:55;;;;;;;4.93;2.40;;;;;;;6.10;78.50;100978.09;4442900;32;20065;-74
2021/01/03 03:18:20;;;;;;;4.32;2.50;;;;;;;6.12;78.53;100981.28;4439055;32;20085;-75
2021/01/03 03:20:47;;;;;;;8.50;2.33;;;;;;;6.16;78.54;100981.25;4441513;32;20144;-75
2021/01/03 03:23:13;;;;;;;7.53;2.00;;;;;;;6.13;78.21;100985.66;4440333;32;20080;-72
2021/01/03 03:25:38;;;;;;;4.00;2.20;;;;;;;5.99;78.85;100987.69;4442602;32;20402;-72
2021/01/03 03:28:04;;;;;;;10.38;2.37;;;;;;;5.87;78.97;100985.31;4434901;32;20029;-74
2021/01/03 03:30:29;;;;;;;5.65;2.05;;;;;;;5.83;79.43;100988.09;4441903;32;20399;-74
2021/01/03 03:32:57;;;;;;;4.62;2.80;;;;;;;5.68;79.57;100983.69;4441445;32;20029;-75
2021/01/03 03:35:26;;;;;;;8.00;2.50;;;;;;;5.79;79.75;100989.28;4425325;32;20045;-73
2021/01/03 03:37:52;;;;;;;4.87;2.35;;;;;;;5.79;79.37;100983.69;4422968;32;20050;-74
2021/01/03 03:40:19;;;;;;;3.92;2.30;;;;;;;5.78;79.83;100988.50;4422334;32;20141;-73
2021/01/03 03:42:44;;;;;;;5.60;2.40;;;;;;;5.78;79.73;100987.69;4429125;32;20064;-73
2021/01/03 03:45:12;;;;;;;5.03;2.28;;;;;;;5.78;79.83;100988.50;4423456;32;20018;-74
2021/01/03 03:47:37;;;;;;;4.40;2.40;;;;;;;5.81;79.94;100992.47;4424445;32;20378;-75
2021/01/03 03:50:06;;;;;;;5.78;2.35;;;;;;;5.90;79.74;100990.09;4423510;32;20046;-75
2021/01/03 03:52:31;;;;;;;3.33;2.30;;;;;;;5.97;79.66;100992.87;4419671;32;20054;-74
2021/01/03 03:54:57;;;;;;;4.15;2.37;;;;;;;5.94;79.41;100985.31;4411638;32;20014;-75
2021/01/03 03:57:23;;;;;;;4.70;2.37;;;;;;;6.00;78.84;100986.50;4412354;32;20053;-75
2021/01/03 03:59:48;;;;;;;7.07;2.17;;;;;;;5.85;77.86;100994.09;4413796;32;20050;-72
2021/01/03 04:02:14;;;;;;;4.90;2.58;;;;;;;5.81;78.48;100990.53;4415979;32;20068;-72
2021/01/03 04:04:40;;;;;;;5.57;2.80;;;;;;;5.76;79.05;100988.09;4416384;32;20026;-72
2021/01/03 04:07:05;;;;;;;4.55;2.20;;;;;;;5.79;78.92;100981.69;4418236;32;20018;-75
2021/01/03 04:09:31;;;;;;;4.10;2.50;;;;;;;5.87;79.04;100986.09;4414030;32;20079;-73
2021/01/03 04:11:57;;;;;;;6.70;1.85;;;;;;;5.81;78.55;100984.09;4416655;32;20037;-72
2021/01/03 04:14:25;;;;;;;5.78;2.40;;;;;;;5.93;78.54;100984.50;4415913;32;20143;-73
2021/01/03 04:16:53;;;;;;;2.97;2.10;;;;;;;5.96;78.20;100980.91;4411507;32;20066;-76
2021/01/03 04:19:20;;;;;;;6.30;2.53;;;;;;;6.02;78.37;100981.31;4417511;32;20041;-74
2021/01/03 04:21:55;;;;;;;6.32;2.97;;;;;;;6.05;78.53;100983.31;4417063;32;20048;-74
2021/01/03 04:24:21;;;;;;;5.35;2.10;;;;;;;6.08;78.20;100985.28;4416460;32;20063;-73
2021/01/03 04:26:50;;;;;;;5.47;2.83;;;;;;;5.97;78.33;100978.91;4414070;32;20038;-74
2021/01/03 04:29:17;;;;;;;6.22;2.50;;;;;;;5.97;78.75;100981.69;4414493;32;20034;-74
2021/01/03 04:31:43;;;;;;;6.75;2.35;;;;;;;5.83;78.92;100970.56;4415822;32;20060;-73
2021/01/03 04:34:09;;;;;;;7.87;2.70;;;;;;;5.94;79.50;100979.72;4415102;32;20029;-74
2021/01/03 04:36:35;;;;;;;5.35;2.67;;;;;;;5.86;79.40;100976.13;4410912;32;20033;-72
2021/01/03 04:39:02;;;;;;;6.47;2.35;;;;;;;5.81;79.20;100965.38;4414535;32;20068;-74
2021/01/03 04:41:34;;;;;;;5.97;2.80;;;;;;;5.95;79.43;100978.50;4412570;32;20056;-73
2021/01/03 04:44:03;;;;;;;5.10;2.45;;;;;;;5.99;79.13;100976.53;4416844;32;20050;-73
2021/01/03 04:46:38;;;;;;;5.85;2.70;;;;;;;5.91;79.28;100972.13;4415372;32;20086;-73
2021/01/03 04:49:15;;;;;;;14.15;3.30;;;;;;;5.95;79.62;100970.94;4416424;32;20074;-74
2021/01/03 04:52:21;;;;;;;5.68;2.75;;;;;;;5.88;79.50;100976.53;4415176;32;20037;-73
2021/01/03 04:54:58;;;;;;;8.40;2.80;;;;;;;5.98;79.72;100981.31;4413093;32;20093;-73
2021/01/03 04:57:40;;;;;;;6.30;2.33;;;;;;;5.93;79.28;100980.91;4417446;32;20060;-74
2021/01/03 05:00:06;;;;;;;10.70;2.87;;;;;;;6.03;79.18;100980.91;4413559;32;20041;-75
2021/01/03 05:10:47;;;;;;;5.93;2.53;;;;;;;6.46;77.87;100989.97;3985675;32;15023767;-73
2021/01/03 05:16:10;;;;;;;11.23;2.58;;;;;;;6.33;77.66;100993.59;3991074;32;15024797;-74
2021/01/03 05:18:36;;;;;;;4.57;2.17;;;;;;;6.33;77.66;100993.59;4436682;32;20041;-72
2021/01/03 05:21:06;;;;;;;5.70;2.78;;;;;;;6.02;78.79;100990.47;4443587;32;20111;-74
2021/01/03 05:23:34;;;;;;;3.72;2.28;;;;;;;6.03;78.79;100997.66;4443980;32;20065;-72
2021/01/03 05:26:02;;;;;;;7.57;2.33;;;;;;;6.09;78.18;100993.28;4440581;32;20041;-72
2021/01/03 05:28:31;;;;;;;5.65;2.28;;;;;;;6.19;78.61;100990.84;4438681;32;20078;-75
2021/01/03 05:31:24;;;;;;;8.85;1.87;;;;;;;6.19;78.35;100982.47;4443707;32;20448;-74
2021/01/03 05:33:57;;;;;;;6.60;2.03;;;;;;;6.11;77.90;100982.47;4438243;32;20489;-74
2021/01/03 05:39:11;;;;;;;4.25;2.15;;;;;;;6.20;78.02;100992.44;3985148;32;15025240;-74
2021/01/03 05:42:04;;;;;;;5.25;2.37;;;;;;;6.16;78.34;100986.06;4443725;32;20369;-74
2021/01/03 05:44:34;;;;;;;5.70;2.15;;;;;;;6.16;78.04;101000.81;4443433;32;20059;-73
2021/01/03 05:49:37;;;;;;;4.50;2.00;;;;;;;6.60;77.10;101006.69;3988868;32;15026400;-73
2021/01/03 05:54:48;;;;;;;6.12;1.95;;;;;;;6.45;76.89;101002.34;3992608;32;15023028;-74
2021/01/03 05:57:32;;;;;;;2.78;1.75;;;;;;;6.45;76.89;101002.34;4443308;32;20033;-75
2021/01/03 06:00:14;;;;;;;5.82;1.70;;;;;;;6.11;78.19;101001.25;4440605;32;20038;-73
2021/01/03 06:02:40;;;;;;;2.62;1.83;;;;;;;6.11;78.12;101002.03;4444179;32;20126;-75
2021/01/03 06:10:40;;;;;;;5.25;2.47;;;;;;;6.50;77.34;101006.75;3987789;32;15023140;-72
2021/01/03 06:13:09;;;;;;;7.37;2.80;;;;;;;6.50;77.34;101006.75;4442707;32;20033;-72
2021/01/03 06:15:42;;;;;;;3.80;2.40;;;;;;;6.03;78.64;101006.06;4441112;32;20056;-72
2021/01/03 06:18:14;;;;;;;5.75;2.30;;;;;;;6.00;78.86;101009.66;4438737;32;20026;-74
2021/01/03 06:20:40;;;;;;;5.50;2.72;;;;;;;5.97;79.03;101004.06;4441056;32;20026;-74
2021/01/03 06:34:13;;;;;;;7.68;2.53;;;;;;;6.64;77.24;101029.03;3986513;32;15021782;-73
2021/01/03 06:37:05;;;;;;;6.93;2.70;;;;;;;6.31;77.80;101021.16;4439718;32;20025;-74
2021/01/03 06:42:46;;;;;;;5.97;2.62;;;;;;;6.35;77.89;101030.34;3960766;32;15725205;-73
2021/01/03 06:45:51;;;;;;;6.03;2.37;;;;;;;6.23;77.83;101028.78;4444438;32;20065;-74
2021/01/03 06:54:44;;;;;;;4.75;2.60;;;;;;;6.18;77.28;101036.75;3984837;32;15023944;-73
2021/01/03 07:02:34;;;;;;;7.68;2.65;;;;;;;6.64;78.14;101041.03;3989489;32;15024760;-74
2021/01/03 07:05:09;;;;;;;6.60;2.90;;;;;;;6.64;78.14;101041.03;4440520;32;20437;-73
2021/01/03 07:07:37;;;;;;;;;;;;;;;6.29;78.66;101048.72;4441313;32;20061;-75
2021/01/03 07:10:08;;;;;;;5.35;2.42;;;;;;;6.24;78.75;101041.53;4439122;32;19952;-73
2021/01/03 07:15:32;;;;;;;7.05;2.80;;;;;;;6.34;78.86;101048.28;3963219;32;15723473;-72
2021/01/03 07:20:50;;;;;;;5.60;2.72;;;;;;;6.42;78.29;101047.09;3985340;32;15023443;-74
2021/01/03 07:23:28;;;;;;;5.87;3.15;;;;;;;6.42;78.29;101047.09;4444351;32;20026;-75
2021/01/03 07:26:30;;;;;;;5.18;2.80;;;;;;;5.98;79.44;101047.53;4441526;32;20104;-72
2021/01/03 07:29:06;;;;;;;10.07;3.40;;;;;;;6.05;79.89;101059.50;4438544;32;20911;-73
2021/01/03 07:34:28;;;;;;;6.10;3.20;;;;;;;6.59;78.22;101065.81;3975222;32;15022605;-72
2021/01/03 07:39:32;;;;;;;5.20;2.90;;;;;;;6.58;78.12;101072.59;3960681;32;15727197;-74
2021/01/03 07:42:23;;;;;;;7.93;3.22;;;;;;;6.58;78.12;101072.59;4443907;32;20147;-73
2021/01/03 07:44:51;;;;;;;4.78;2.72;;;;;;;6.26;79.19;101067.06;4439686;32;20021;-73
2021/01/03 07:47:42;;;;;;;5.47;2.95;;;;;;;6.25;79.18;101070.25;4440124;32;20082;-72
2021/01/03 07:55:35;;;;;;;4.57;2.50;;;;;;;6.71;78.05;101080.16;3988870;32;15023590;-74
2021/01/03 07:58:05;;;;;;;5.35;3.30;;;;;;;6.71;78.05;101080.16;4430392;32;20389;-73
2021/01/03 08:00:37;;;;;;;13.05;3.22;;;;;;;6.33;78.55;101064.28;4437767;32;20049;-72
2021/01/03 08:05:40;;;;;;;7.55;3.62;;;;;;;6.51;77.60;101070.63;3983325;32;15025507;-74
2021/01/03 08:10:43;;;;;;;5.97;3.30;;;;;;;6.19;78.67;101074.69;3987374;32;15026540;-72
2021/01/03 08:13:16;;;;;;;5.15;2.97;;;;;;;6.17;79.13;101072.28;4440636;32;20025;-73
2021/01/03 08:15:42;;;;;;;6.12;2.80;;;;;;;6.16;79.05;101081.84;4439472;32;20076;-73
2021/01/03 08:18:18;;;;;;;5.62;3.30;;;;;;;6.16;78.59;101081.84;4441952;32;20034;-73
2021/01/03 08:20:45;;;;;;;4.60;2.70;;;;;;;6.25;78.72;101095.41;4433582;32;20114;-74
2021/01/03 08:26:17;;;;;;;9.55;3.28;;;;;;;6.73;77.32;101102.13;4012007;31;15018438;-72
2021/01/03 08:31:47;;;;;;;6.12;3.78;;;;;;;6.71;77.72;101105.31;3985547;32;15022663;-74
2021/01/03 08:34:17;;;;;;;4.97;3.15;;;;;;;6.71;77.72;101105.31;4438069;32;20122;-75
2021/01/03 08:36:43;;;;;;;5.95;3.30;;;;;;;6.31;78.34;101103.00;4431819;32;20100;-74
2021/01/03 08:39:13;;;;;;;4.05;3.00;;;;;;;6.34;78.07;101118.16;4428977;32;20125;-75
2021/01/03 08:41:52;;;;;;;9.18;3.28;;;;;;;6.31;78.32;101116.97;4429837;32;20111;-73
2021/01/03 08:44:22;;;;;;;7.07;3.20;;;;;;;6.40;78.24;101105.38;4436516;32;20358;-75
2021/01/03 08:46:49;;;;;;;7.62;3.10;;;;;;;6.47;77.98;101116.56;4433746;32;20026;-72
2021/01/03 08:49:15;;;;;;;8.25;3.55;;;;;;;6.48;77.59;101118.16;4432912;32;20064;-73
2021/01/03 08:51:41;;;;;;;4.35;3.25;;;;;;;6.51;77.49;101129.34;4432249;32;20259;-73
2021/01/03 08:54:11;;;;;;;5.15;2.97;;;;;;;6.52;77.25;101133.75;4433639;32;20029;-74
2021/01/03 08:56:46;;;;;;;7.07;3.17;;;;;;;6.56;76.91;101136.53;4438685;32;20022;-72
2021/01/03 08:59:14;;;;;;;4.45;3.00;;;;;;;6.59;77.27;101136.50;4430857;32;20087;-72
2021/01/03 09:01:40;;;;;;;5.37;2.90;;;;;;;6.60;76.45;101145.72;4435127;32;20036;-73
2021/01/03 09:04:11;;;;;;;5.07;3.47;;;;;;;6.54;76.54;101139.72;4432806;32;20076;-73
2021/01/03 09:06:38;;;;;;;6.70;3.80;;;;;;;6.58;76.52;101150.91;4436793;32;20096;-74
2021/01/03 09:09:10;;;;;;;5.47;3.50;;;;;;;6.51;76.52;101142.53;4429611;32;20069;-73
2021/01/03 09:11:38;;;;;;;8.43;3.35;;;;;;;6.45;76.06;101144.12;4425275;32;20404;-74
2021/01/03 09:16:52;;;;;;;3.97;3.00;;;;;;;6.43;76.82;101150.12;3988813;32;15022845;-73
2021/01/03 09:19:57;;;;;;;6.20;4.05;;;;;;;6.45;77.24;101149.72;4438870;32;20121;-75
2021/01/03 09:25:14;;;;;;;5.57;3.65;;;;;;;6.83;76.21;101162.84;3989572;32;15022474;-75
2021/01/03 09:27:41;;;;;;;5.35;3.42;;;;;;;6.83;76.21;101162.84;4441012;32;20060;-75
2021/01/03 09:30:30;;;;;;;6.25;3.15;;;;;;;6.42;77.18;101156.91;4435155;32;20163;-75
2021/01/03 09:36:23;;;;;;;7.28;3.50;;;;;;;6.93;76.23;101168.41;3990615;32;15025493;-75
2021/01/03 09:46:55;;;;;;;7.75;3.90;;;;;;;6.81;75.70;101185.63;3984268;32;15025090;-75
2021/01/03 09:49:48;;;;;;;8.38;3.87;;;;;;;6.81;75.70;101185.63;4431957;32;20056;-75
2021/01/03 09:57:47;;;;;;;7.18;4.57;;;;;;;6.85;78.04;101194.81;3960366;32;15725641;-73
2021/01/03 10:00:18;;;;;;;7.45;3.97;;;;;;;6.85;78.04;101194.81;4433601;32;20519;-74
2021/01/03 10:02:44;;;;;;;7.40;3.22;;;;;;;6.34;78.80;101193.63;4440205;32;20078;-75
2021/01/03 10:05:31;;;;;;;5.93;3.47;;;;;;;6.36;78.45;101205.22;4444811;32;20046;-76
2021/01/03 10:08:01;;;;;;;8.20;4.00;;;;;;;6.45;78.24;101200.84;4440030;32;20054;-75
2021/01/03 10:13:24;;;;;;;7.22;4.07;;;;;;;6.74;77.71;101208.00;4012386;31;15013528;-75
2021/01/03 10:15:50;;;;;;;9.43;4.85;;;;;;;6.74;77.71;101208.00;4450265;32;20684;-73
2021/01/03 10:18:38;;;;;;;6.15;4.15;;;;;;;6.18;79.17;101212.78;4467947;32;20092;-75
2021/01/03 10:21:39;;;;;;;9.98;4.28;;;;;;;6.32;79.43;101207.22;4467815;32;20405;-76
2021/01/03 10:24:26;;;;;;;9.70;4.85;;;;;;;6.15;79.06;101214.41;4470600;32;20077;-74
2021/01/03 10:29:42;;;;;;;10.27;5.55;;;;;;;6.35;79.89;101223.22;3983846;32;15022577;-74
2021/01/03 10:32:08;;;;;;;8.70;5.82;;;;;;;6.35;79.89;101223.22;4441956;32;20059;-74
2021/01/03 10:34:34;;;;;;;12.05;5.95;;;;;;;5.85;80.87;101223.13;4436818;32;20097;-76
2021/01/03 10:37:00;;;;;;;9.20;5.32;;;;;;;5.83;80.43;101208.75;4428889;32;20099;-73
2021/01/03 10:39:28;;;;;;;10.50;6.68;;;;;;;5.93;80.42;101210.75;4429941;32;20331;-77
2021/01/03 10:41:53;;;;;;;8.63;5.55;;;;;;;6.03;80.30;101217.56;4435058;32;20045;-73
2021/01/03 10:44:19;;;;;;;6.65;5.07;;;;;;;6.17;80.88;101230.75;4431626;32;20037;-73
2021/01/03 10:46:47;;;;;;;7.75;4.60;;;;;;;6.14;79.68;101224.75;4436159;32;20025;-76
2021/01/03 10:49:13;;;;;;;6.55;4.68;;;;;;;6.22;79.33;101227.59;4437842;32;20041;-73
2021/01/03 10:51:42;;;;;;;11.35;4.53;;;;;;;6.23;78.99;101234.78;4433329;32;20525;-74
2021/01/03 10:54:10;;;;;;;8.18;5.15;;;;;;;6.34;79.27;101233.56;4435901;32;20122;-76
2021/01/03 10:56:36;;;;;;;8.23;4.80;;;;;;;6.33;78.74;101232.00;4434149;32;20066;-77
2021/01/03 10:59:05;;;;;;;6.95;4.45;;;;;;;6.36;78.78;101224.78;4428326;32;20472;-74
2021/01/03 11:01:30;;;;;;;5.12;4.05;;;;;;;6.39;78.90;101218.41;4428830;32;20082;-76
2021/01/03 11:03:56;;;;;;;8.00;4.20;;;;;;;6.39;78.66;101218.41;4434877;32;20065;-76
2021/01/03 11:06:22;;;;;;;4.82;3.42;;;;;;;6.49;77.96;101212.81;4433090;32;20094;-73
2021/01/03 11:08:47;;;;;;;5.00;3.17;;;;;;;6.53;77.89;101205.22;4428046;32;20104;-77
2021/01/03 11:11:20;;;;;;;4.37;2.92;;;;;;;6.52;77.72;101200.84;4430556;32;20029;-75
2021/01/03 11:13:46;;;;;;;6.95;3.25;;;;;;;6.58;77.02;101204.03;4432319;32;20126;-75
2021/01/03 11:16:11;;;;;;;3.83;3.03;;;;;;;6.73;77.45;101202.81;4430677;32;20046;-75
2021/01/03 11:18:37;;;;;;;4.22;2.50;;;;;;;6.68;76.69;101214.41;4431697;32;20474;-76
2021/01/03 11:21:03;;;;;;;3.60;2.75;;;;;;;6.73;76.69;101202.81;4433961;32;20136;-72
2021/01/03 11:23:28;;;;;;;5.37;3.15;;;;;;;6.83;76.65;101211.19;4431717;32;20068;-74
2021/01/03 11:25:55;;;;;;;4.55;2.58;;;;;;;6.69;76.16;101211.19;4429842;32;20022;-77
2021/01/03 11:28:22;;;;;;;5.60;3.03;;;;;;;6.62;76.13;101208.41;4429475;32;20068;-74
2021/01/03 11:30:49;;;;;;;5.15;3.40;;;;;;;6.73;76.57;101211.22;4425579;32;20063;-75
2021/01/03 11:33:14;;;;;;;4.78;2.90;;;;;;;6.79;76.06;101206.81;4436061;32;20034;-75
2021/01/03 11:35:40;;;;;;;4.82;3.00;;;;;;;6.62;76.11;101205.63;4434297;32;20456;-73
2021/01/03 11:38:06;;;;;;;7.45;3.62;;;;;;;6.55;76.01;101208.44;4432675;32;20446;-74
2021/01/03 11:40:31;;;;;;;5.43;3.65;;;;;;;6.75;77.12;101208.81;4420651;32;20403;-75
2021/01/03 11:42:58;;;;;;;7.85;3.83;;;;;;;6.90;77.26;101207.59;4420441;32;20103;-73
2021/01/03 11:45:24;;;;;;;5.32;3.60;;;;;;;7.14;76.70;101217.91;4421056;32;20014;-74
2021/01/03 11:47:50;;;;;;;7.43;5.05;;;;;;;7.34;76.06;101213.47;4422300;32;20081;-74
2021/01/03 11:50:19;;;;;;;8.38;5.62;;;;;;;7.40;74.42;101215.44;4418182;32;20053;-75
2021/01/03 11:52:45;;;;;;;6.22;4.28;;;;;;;7.60;74.86;101222.16;4422473;32;20070;-75
2021/01/03 11:55:15;;;;;;;7.82;4.05;;;;;;;7.68;74.31;101208.94;4422938;32;20039;-73
2021/01/03 11:57:41;;;;;;;5.10;4.10;;;;;;;7.53;72.46;101208.22;4421379;32;20076;-75
2021/01/03 12:00:11;;;;;;;5.32;3.97;;;;;;;7.50;73.01;101216.59;4419794;32;20042;-74
2021/01/03 12:02:38;;;;;;;7.50;4.20;;;;;;;7.56;72.55;101213.00;4420216;32;20112;-76
2021/01/03 12:05:05;;;;;;;8.07;4.70;;;;;;;7.62;73.16;101211.38;4423251;32;20030;-74
2021/01/03 12:07:31;;;;;;;5.97;4.20;;;;;;;7.61;72.49;101212.56;4411119;32;20043;-74
2021/01/03 12:09:57;;;;;;;10.38;4.93;;;;;;;7.65;73.08;101201.34;4416544;32;20428;-75
2021/01/03 12:12:23;;;;;;;6.05;4.32;;;;;;;7.62;71.81;101196.56;4423017;32;20423;-75
2021/01/03 12:14:49;;;;;;;7.07;4.40;;;;;;;7.68;72.97;101206.13;4421003;32;20093;-73
2021/01/03 12:17:19;;;;;;;9.35;5.72;;;;;;;7.75;72.27;101214.50;4419597;32;20108;-75
2021/01/03 12:19:46;;;;;;;12.60;5.62;;;;;;;7.81;72.98;101210.06;4418827;32;20069;-74
2021/01/03 12:22:12;;;;;;;9.80;5.53;;;;;;;7.90;73.35;101218.81;4421485;32;20101;-75
2021/01/03 12:24:37;;;;;;;9.57;4.95;;;;;;;7.86;73.37;101209.66;4422023;32;20062;-76
2021/01/03 12:27:04;;;;;;;7.78;5.03;;;;;;;7.93;72.71;101201.19;4420504;32;20383;-74
2021/01/03 12:29:31;;;;;;;8.05;4.90;;;;;;;7.90;72.14;101196.41;4418713;32;20084;-74
2021/01/03 12:32:02;;;;;;;9.35;5.12;;;;;;;7.92;72.78;101194.00;4417896;32;20099;-74
2021/01/03 12:34:29;;;;;;;10.30;4.47;;;;;;;7.88;72.45;101196.00;4431740;32;20026;-74
2021/01/03 12:39:40;;;;;;;8.52;5.28;;;;;;;8.52;71.71;101185.97;3985209;32;15023925;-74
2021/01/03 12:42:07;;;;;;;14.38;4.20;;;;;;;8.52;71.71;101185.97;4439823;32;20055;-76
2021/01/03 12:44:33;;;;;;;7.40;4.55;;;;;;;8.50;72.07;101201.62;4445354;32;20419;-75
2021/01/03 12:47:01;;;;;;;5.68;4.30;;;;;;;8.45;70.61;101191.62;4442363;32;20315;-75
2021/01/03 12:49:28;;;;;;;5.62;3.75;;;;;;;8.63;70.82;101189.47;4441711;32;20037;-75
2021/01/03 12:51:54;;;;;;;7.47;3.85;;;;;;;8.58;70.04;101189.91;4437952;32;20034;-74
2021/01/03 12:54:20;;;;;;;9.38;3.80;;;;;;;8.52;69.32;101190.75;4437755;32;20411;-76
2021/01/03 12:56:47;;;;;;;5.95;4.10;;;;;;;8.28;70.65;101195.34;4437276;32;20038;-76
2021/01/03 12:59:13;;;;;;;9.48;3.62;;;;;;;8.15;70.80;101194.22;4435460;32;20352;-74
2021/01/03 13:01:39;;;;;;;6.80;3.90;;;;;;;7.89;70.83;101194.81;4436522;32;20107;-74
2021/01/03 13:04:07;;;;;;;7.30;3.90;;;;;;;7.99;71.90;101193.94;4437749;32;20057;-74
2021/01/03 13:06:34;;;;;;;7.07;4.50;;;;;;;8.00;71.49;101192.72;4440136;32;20100;-75
2021/01/03 13:09:01;;;;;;;7.97;4.32;;;;;;;7.94;71.62;101175.56;4437802;32;20042;-75
2021/01/03 13:11:27;;;;;;;6.85;3.80;;;;;;;8.06;71.95;101186.28;4435404;32;20026;-74
2021/01/03 13:13:52;;;;;;;6.70;3.67;;;;;;;8.11;71.71;101187.88;4440762;32;20120;-76
2021/01/03 13:16:18;;;;;;;9.98;4.85;;;;;;;7.99;72.19;101182.72;4445635;32;20026;-75
2021/01/03 13:18:47;;;;;;;7.70;3.92;;;;;;;8.07;72.08;101185.06;4438443;32;20466;-75
2021/01/03 13:21:14;;;;;;;7.30;3.97;;;;;;;8.13;71.55;101185.41;4438009;32;20374;-76
2021/01/03 13:23:40;;;;;;;12.63;4.60;;;;;;;8.08;71.92;101189.47;4444618;32;20037;-76
2021/01/03 13:26:06;;;;;;;6.78;3.83;;;;;;;8.14;71.98;101196.22;4442587;32;20063;-76
2021/01/03 13:28:32;;;;;;;9.40;3.83;;;;;;;8.08;71.67;101199.87;4435685;32;20583;-76
2021/01/03 13:30:58;;;;;;;10.63;4.60;;;;;;;8.11;71.50;101197.03;4436731;32;20037;-77
2021/01/03 13:33:24;;;;;;;9.10;3.97;;;;;;;7.95;71.81;101182.75;4438123;32;20056;-74
2021/01/03 13:35:49;;;;;;;8.00;4.07;;;;;;;7.67;72.14;101187.75;4435545;32;20044;-76
2021/01/03 13:38:16;;;;;;;10.00;4.65;;;;;;;7.65;72.98;101184.53;4434889;32;20409;-77
2021/01/03 13:40:43;;;;;;;9.55;4.65;;;;;;;7.61;73.46;101195.75;4429126;32;20073;-75